createdAt,value
2023-02-17T00:05:26.021Z,7.89
2023-02-17T00:19:35.717Z,7.96
2023-02-17T00:33:48.109Z,8.1
2023-02-17T00:48:00.884Z,8.34
2023-02-17T01:02:13.187Z,8.49
2023-02-17T01:16:28.162Z,8.59
2023-02-17T01:30:37.156Z,8.62
2023-02-17T01:44:49.600Z,8.63
2023-02-17T01:59:02.727Z,8.74
2023-02-17T02:13:15.375Z,8.84
2023-02-17T02:27:27.704Z,8.99
2023-02-17T02:41:43.115Z,9.09
2023-02-17T02:55:50.276Z,9.16
2023-02-17T03:10:02.618Z,9.19
2023-02-17T03:24:16.874Z,9.28
2023-02-17T03:38:26.216Z,9.25
2023-02-17T03:52:38.580Z,9.26
2023-02-17T04:21:02.135Z,9.31
2023-02-17T04:35:14.766Z,9.37
2023-02-17T04:49:27.185Z,9.38
2023-02-17T05:03:41.080Z,9.44
2023-02-17T05:17:51.831Z,9.5
2023-02-17T05:32:04.820Z,9.56
2023-02-17T05:46:17.675Z,9.63
2023-02-17T06:00:29.871Z,9.64
2023-02-17T06:14:43.065Z,9.62
2023-02-17T06:28:56.120Z,9.66
2023-02-17T06:43:11.110Z,9.78
2023-02-17T06:57:20.602Z,9.83
2023-02-17T07:11:32.657Z,9.89
2023-02-17T07:25:49.538Z,9.96
2023-02-17T07:39:54.969Z,10.14
2023-02-17T07:54:07.629Z,10.33
2023-02-17T08:08:20.278Z,10.46
2023-02-17T08:22:33.199Z,10.63
2023-02-17T08:36:46.395Z,10.78
2023-02-17T08:50:59.180Z,10.77
2023-02-17T09:05:12.155Z,10.78
2023-02-17T09:14:37.337Z,10.76
2023-02-17T09:19:24.395Z,10.66
2023-02-17T09:33:37.416Z,10.74
2023-02-17T09:33:45.363Z,10.76
2023-02-17T09:47:52.739Z,10.93
2023-02-17T09:52:55.266Z,11.06
2023-02-17T10:02:27.443Z,11.21
2023-02-17T10:03:31.579Z,11.24
2023-02-17T10:04:34.004Z,11.29
2023-02-17T10:05:36.417Z,11.33
2023-02-17T10:15:11.166Z,11.39
2023-02-17T10:16:12.871Z,11.44
2023-02-17T10:17:15.213Z,11.48
2023-02-17T10:18:19.279Z,11.53
2023-02-17T10:19:21.585Z,11.60
2023-02-17T10:20:24.118Z,11.64
2023-02-17T10:21:26.651Z,11.69
2023-02-17T10:22:29.065Z,11.71
2023-02-17T10:23:31.527Z,11.73
2023-02-17T10:24:33.979Z,11.75
2023-02-17T10:25:36.362Z,11.76
2023-02-17T10:26:38.910Z,11.79
2023-02-17T10:37:13.830Z,11.66
2023-02-17T10:38:16.429Z,11.68
2023-02-17T10:39:18.711Z,11.70
2023-02-17T10:40:21.244Z,11.75
2023-02-17T10:41:23.560Z,11.78
2023-02-17T10:42:26.023Z,11.83
2023-02-17T10:43:30.093Z,11.85
2023-02-17T10:44:32.467Z,11.91
2023-02-17T10:45:34.837Z,11.92
2023-02-17T10:46:37.257Z,11.95
2023-02-17T10:58:13.680Z,11.86
2023-02-17T10:59:16.256Z,11.88
2023-02-17T11:00:18.752Z,11.92
2023-02-17T11:01:23.003Z,11.95
2023-02-17T11:02:25.426Z,11.99
2023-02-17T11:03:29.490Z,12.04
2023-02-17T11:04:31.796Z,12.05
2023-02-17T11:05:34.355Z,12.08
2023-02-17T11:06:36.837Z,12.10
2023-02-17T11:07:40.823Z,12.09
2023-02-17T11:08:43.182Z,12.11
2023-02-17T11:09:47.215Z,12.14
2023-02-17T11:10:51.370Z,12.15
2023-02-17T11:20:20.878Z,12.10
2023-02-17T11:21:23.362Z,12.12
2023-02-17T11:22:25.820Z,12.18
2023-02-17T11:23:29.857Z,12.25
2023-02-17T11:33:03.171Z,12.64
2023-02-17T11:34:05.517Z,12.72
2023-02-17T11:35:09.598Z,12.83
2023-02-17T11:36:12.192Z,12.93
2023-02-17T11:37:16.259Z,12.99
2023-02-17T11:38:18.474Z,13.07
2023-02-17T11:39:20.938Z,13.11
2023-02-17T11:40:26.522Z,13.16
2023-02-17T11:41:28.942Z,13.17
2023-02-17T11:42:31.192Z,13.21
2023-02-17T11:43:33.675Z,13.23
2023-02-17T11:44:37.679Z,13.21
2023-02-17T11:45:40.103Z,13.24
2023-02-17T11:46:44.113Z,13.29
2023-02-17T11:47:48.068Z,13.33
2023-02-17T11:48:50.386Z,13.41
2023-02-17T11:49:52.848Z,13.47
2023-02-17T11:50:55.344Z,13.49
2023-02-17T11:51:57.674Z,13.52
2023-02-17T11:53:01.696Z,13.55
2023-02-17T11:54:05.711Z,13.59
2023-02-17T11:55:09.548Z,13.58
2023-02-17T11:56:11.891Z,13.61
2023-02-17T11:57:14.399Z,13.63
2023-02-17T11:58:16.839Z,13.59
2023-02-17T11:59:20.887Z,13.65
2023-02-17T12:00:23.285Z,13.68
2023-02-17T12:01:27.303Z,13.67
2023-02-17T12:02:29.592Z,13.69
2023-02-17T12:04:36.164Z,13.70
2023-02-17T12:05:38.420Z,13.69
2023-02-17T12:07:45.149Z,13.65
2023-02-17T12:08:47.800Z,13.64
2023-02-17T12:09:50.023Z,13.63
2023-02-17T12:10:52.466Z,13.62
2023-02-17T12:11:54.954Z,13.60
2023-02-17T12:12:57.322Z,13.62
2023-02-17T12:13:59.906Z,13.68
2023-02-17T12:15:03.969Z,13.67
2023-02-17T12:16:06.581Z,13.62
2023-02-17T12:17:08.764Z,13.64
2023-02-17T12:18:12.819Z,13.63
2023-02-17T12:19:15.202Z,13.65
2023-02-17T12:20:19.203Z,13.61
2023-02-17T12:21:21.449Z,13.60
2023-02-17T12:22:27.704Z,13.54
2023-02-17T12:23:29.843Z,13.55
2023-02-17T12:24:32.282Z,13.53
2023-02-17T12:25:34.743Z,13.45
2023-02-17T12:26:37.187Z,13.43
2023-02-17T12:27:41.250Z,13.41
2023-02-17T12:29:46.012Z,13.34
2023-02-17T12:30:48.564Z,13.33
2023-02-17T12:31:51.005Z,13.31
2023-02-17T12:32:53.353Z,13.29
2023-02-17T12:33:55.782Z,13.28
2023-02-17T12:34:58.216Z,13.25
2023-02-17T12:36:02.208Z,13.24
2023-02-17T12:37:04.675Z,13.23
2023-02-17T12:38:07.166Z,13.21
2023-02-17T12:39:11.456Z,13.23
2023-02-17T12:40:13.894Z,13.25
2023-02-17T12:41:16.421Z,13.24
2023-02-17T12:42:20.517Z,13.21
2023-02-17T12:43:22.789Z,13.17
2023-02-17T12:44:25.228Z,13.18
2023-02-17T12:53:59.301Z,12.96
2023-02-17T12:55:03.380Z,12.94
2023-02-17T12:56:06.003Z,12.99
2023-02-17T12:57:09.753Z,13.06
2023-02-17T12:58:12.094Z,13.09
2023-02-17T12:59:14.601Z,13.13
2023-02-17T13:01:19.508Z,13.18
2023-02-17T13:02:21.932Z,13.21
2023-02-17T13:03:25.932Z,13.27
2023-02-17T13:04:29.910Z,13.28
2023-02-17T13:05:33.775Z,13.29
2023-02-17T13:06:36.112Z,13.28
2023-02-17T13:08:42.632Z,13.31
2023-02-17T13:09:46.518Z,13.35
2023-02-17T13:10:48.897Z,13.37
2023-02-17T13:11:51.356Z,13.39
2023-02-17T13:12:55.424Z,13.40
2023-02-17T13:13:57.727Z,13.42
2023-02-17T13:15:01.817Z,13.44
2023-02-17T13:16:06.239Z,13.47
2023-02-17T13:17:08.118Z,13.45
2023-02-17T13:18:12.132Z,13.44
2023-02-17T13:19:14.425Z,13.46
2023-02-17T13:21:19.537Z,13.45
2023-02-17T13:22:21.991Z,13.44
2023-02-17T13:23:24.347Z,13.42
2023-02-17T13:24:26.814Z,13.46
2023-02-17T13:26:33.331Z,13.44
2023-02-17T13:27:35.620Z,13.42
2023-02-17T13:28:38.051Z,13.39
2023-02-17T13:29:42.050Z,13.43
2023-02-17T13:30:44.554Z,13.45
2023-02-17T13:31:48.662Z,13.42
2023-02-17T13:32:50.825Z,13.46
2023-02-17T13:33:53.253Z,13.45
2023-02-17T13:34:55.720Z,13.50
2023-02-17T13:35:59.786Z,13.51
2023-02-17T13:37:03.592Z,13.55
2023-02-17T13:38:07.115Z,13.56
2023-02-17T13:39:09.426Z,13.58
2023-02-17T13:40:11.928Z,13.56
2023-02-17T13:42:19.501Z,13.58
2023-02-17T13:43:20.700Z,13.60
2023-02-17T13:44:23.096Z,13.58
2023-02-17T13:45:27.170Z,13.57
2023-02-17T13:46:29.443Z,13.58
2023-02-17T13:47:32.030Z,13.61
2023-02-17T13:48:34.412Z,13.63
2023-02-17T13:50:39.332Z,13.66
2023-02-17T13:51:41.804Z,13.64
2023-02-17T13:52:44.325Z,13.62
2023-02-17T13:53:46.804Z,13.66
2023-02-17T13:54:49.244Z,13.65
2023-02-17T13:55:53.244Z,13.63
2023-02-17T13:56:57.150Z,13.65
2023-02-17T13:58:01.015Z,13.68
2023-02-17T13:59:03.355Z,13.69
2023-02-17T14:00:05.809Z,13.66
2023-02-17T14:01:09.893Z,13.68
2023-02-17T14:02:12.293Z,13.70
2023-02-17T14:03:16.330Z,13.63
2023-02-17T14:04:18.719Z,13.66
2023-02-17T14:06:24.559Z,13.64
2023-02-17T14:07:26.864Z,13.65
2023-02-17T14:08:29.354Z,13.69
2023-02-17T14:09:31.713Z,13.67
2023-02-17T14:10:36.052Z,13.66
2023-02-17T14:11:38.331Z,13.67
2023-02-17T14:12:40.767Z,13.68
2023-02-17T14:13:43.282Z,13.66
2023-02-17T14:14:47.414Z,13.65
2023-02-17T14:15:49.845Z,13.66
2023-02-17T14:16:52.148Z,13.64
2023-02-17T14:17:56.319Z,13.62
2023-02-17T14:19:00.508Z,13.60
2023-02-17T14:20:02.826Z,13.57
2023-02-17T14:21:05.625Z,13.59
2023-02-17T14:22:07.734Z,13.57
2023-02-17T14:23:10.288Z,13.58
2023-02-17T14:24:12.803Z,13.59
2023-02-17T14:25:15.203Z,13.57
2023-02-17T14:26:19.645Z,13.56
2023-02-17T14:27:21.962Z,13.55
2023-02-17T14:28:24.440Z,13.59
2023-02-17T14:29:28.492Z,13.60
2023-02-17T14:30:37.585Z,13.57
2023-02-17T14:31:39.475Z,13.62
2023-02-17T14:32:41.821Z,13.63
2023-02-17T14:33:44.282Z,13.62
2023-02-17T14:34:46.754Z,13.64
2023-02-17T14:35:50.793Z,13.66
2023-02-17T14:36:53.120Z,13.65
2023-02-17T14:40:04.622Z,13.62
2023-02-17T14:41:07.189Z,13.63
2023-02-17T14:43:11.781Z,13.62
2023-02-17T14:44:18.068Z,13.63
2023-02-17T14:45:21.744Z,13.64
2023-02-17T14:46:24.180Z,13.67
2023-02-17T14:47:28.154Z,13.70
2023-02-17T14:48:30.545Z,13.72
2023-02-17T14:49:34.565Z,13.73
2023-02-17T14:50:36.833Z,13.75
2023-02-17T14:51:39.277Z,13.76
2023-02-17T14:52:43.532Z,13.78
2023-02-17T14:53:47.285Z,13.77
2023-02-17T14:54:49.679Z,13.78
2023-02-17T14:55:52.128Z,13.79
2023-02-17T14:56:54.535Z,13.80
2023-02-17T14:57:58.602Z,13.81
2023-02-17T14:59:02.536Z,13.83
2023-02-17T15:00:04.879Z,13.82
2023-02-17T15:01:07.313Z,13.81
2023-02-17T15:02:09.789Z,13.82
2023-02-17T15:03:12.188Z,13.81
2023-02-17T15:04:14.686Z,13.82
2023-02-17T15:05:17.224Z,13.79
2023-02-17T15:06:19.617Z,13.82
2023-02-17T15:07:22.170Z,13.79
2023-02-17T15:09:27.140Z,13.81
2023-02-17T15:10:29.596Z,13.79
2023-02-17T15:11:33.957Z,13.81
2023-02-17T15:12:36.252Z,13.82
2023-02-17T15:13:38.709Z,13.85
2023-02-17T15:15:45.256Z,13.93
2023-02-17T15:16:47.523Z,13.98
2023-02-17T15:19:56.494Z,13.94
2023-02-17T15:20:58.979Z,13.93
2023-02-17T15:23:03.843Z,13.86
2023-02-17T15:24:06.348Z,13.84
2023-02-17T15:25:08.816Z,13.82
2023-02-17T15:27:13.754Z,13.81
2023-02-17T15:28:16.178Z,13.80
2023-02-17T15:29:20.255Z,13.79
2023-02-17T15:30:24.979Z,13.78
2023-02-17T15:31:28.260Z,13.75
2023-02-17T15:32:32.114Z,13.77
2023-02-17T15:34:39.922Z,13.78
2023-02-17T15:35:43.695Z,13.74
2023-02-17T15:36:46.005Z,13.75
2023-02-17T15:37:48.414Z,13.73
2023-02-17T15:39:53.319Z,13.72
2023-02-17T15:40:57.361Z,13.69
2023-02-17T15:42:00.733Z,13.67
2023-02-17T15:43:20.022Z,13.57
2023-02-17T15:55:37.062Z,13.56
2023-02-17T15:56:41.164Z,13.54
2023-02-17T15:57:28.401Z,13.3
2023-02-17T16:11:41.347Z,13.11
2023-02-17T16:22:01.636Z,13.05
2023-02-17T16:23:04.111Z,13.08
2023-02-17T16:24:08.283Z,13.10
2023-02-17T16:25:54.092Z,12.92
2023-02-17T16:40:06.619Z,12.73
2023-02-17T16:54:19.835Z,12.57
2023-02-17T17:08:33.924Z,12.43
2023-02-17T17:22:43.903Z,12.09
2023-02-17T17:36:56.404Z,12.05
2023-02-17T17:51:09.945Z,12.13
2023-02-17T18:05:23.372Z,12.16
2023-02-17T18:19:36.939Z,12.17
2023-02-17T18:48:05.658Z,12.12
2023-02-17T19:16:24.832Z,12.1
2023-02-17T19:59:03.834Z,12.11
2023-02-17T20:13:17.417Z,12.12
2023-02-17T20:55:53.013Z,12.11
2023-02-17T21:10:04.611Z,12.07
2023-02-17T21:24:18.305Z,12.05
2023-02-17T21:38:31.496Z,11.97
2023-02-17T21:52:42.880Z,11.85
2023-02-17T22:06:56.249Z,11.88
2023-02-17T22:21:09.533Z,11.9
2023-02-17T22:49:35.002Z,11.86
2023-02-17T23:03:47.720Z,11.88
2023-02-17T23:18:00.780Z,11.91
2023-02-17T23:32:13.635Z,11.86
2023-02-17T23:46:26.125Z,11.77
